Terminal Aerodrome Forecast
Issued by NWS Brownsville, TX

Home | Current Version | Previous Version | Text Only | Print | Product List | Glossary On
Versions: 1 2 3 4 5 6 7 8 9 10 11 12 13 14 15 16 17 18 19 20 21 22 23 24 25 26 27
642
FTUS44 KBRO 261407 AAA
TAFHRL
TAF AMD
KHRL 261407Z 2614/2712 36005KT P6SM VCSH FEW030
      TEMPO 2615/2619 2SM TSRA BKN030CB
     FM261900 07010KT P6SM VCTS BKN040CB
      TEMPO 2619/2622 2SM +TSRA BKN025CB
     FM262300 08010KT P6SM BKN040 OVC200
     FM270200 07004KT P6SM SCT025 PROB30 2703/2706 5SM SHRA BKN025
     FM270600 VRB03KT P6SM BKN025 PROB30 2706/2710 5SM -SHRA=

USA.gov is the U.S. government's official web portal to all federal, state and local government web resources and services.